Avon, Iowa
Current Conditions -  °F | °C
As of 2:54 PM on Thursday 23 Oct 2014 (Local Time) from KDSM Reporting Station
Few Clouds Few Clouds  
Wind Chill: 70°   Ceiling: Unl
Heat Index: 70°   Visibility: 10mi
Dew Point: 57°   Wind: 5mph
Humidity: 63%   Direction: 230°SW
Pressure: 30.01"   Gusts: NA
Location:  41.4707°N, 93.4797°W
Report Text: KDSM 231954Z 23004KT 10SM FEW023 FEW035 21/14 A3001 RMK AO2 SLP158 T02110139
Loading
Personal Weather Stations






























Interactive Weather Map
Tropical Storm Tracking
New forecast layout! Learn more

10-Day Weather Forecast

Advertisements
Track Severe Weather on mobile